Latest Weather Observations for Ouse

IDT60801

Issued at 10:31 pm EDT Sunday 1 February 2015 (issued every 30 minutes, with the page automatically refreshed every 10 minutes)

About weather observations | Map of weather stations | Latest weather observations for TAS | Other Formats
Station Details ID: 095048 Name: OUSE FIRE STATION Lat: -42.48 Lon: 146.71 Height: 90.0 m
Data from the previous 72 hours. | See also: Recent months at Ouse
Date/Time
EDT
Temp
°C
App
Temp
°C
Dew
Point
Rel
Hum
%
Delta-T
°C
Wind Press
QNH
hPa
Press
MSL
hPa
Rain
since 9 am
mm
Dir
 
Spd
km/h
Gust
km/h
Spd
kts
Gust
kts
01/10:30pm 13.3 10.5 8.4 72 2.4 SE 13 19 7 10 1018.2 1018.0 0.0
01/10:00pm 13.6 10.4 8.4 71 2.6 SE 15 24 8 13 1018.1 1017.9 0.0
01/09:30pm 13.7 9.7 8.3 70 2.7 SE 19 28 10 15 1017.7 1017.5 0.0
01/09:00pm 14.0 10.1 8.6 70 2.7 SE 19 28 10 15 1017.4 1017.2 0.0
01/08:30pm 14.2 10.3 8.6 69 2.8 SE 19 28 10 15 1016.9 1016.7 0.0
01/08:00pm 14.4 10.9 8.8 69 2.8 ESE 17 30 9 16 1016.6 1016.4 0.0
01/07:30pm 14.8 10.4 9.0 68 3.0 SE 22 35 12 19 1016.3 1016.1 0.0
01/07:00pm 15.3 11.0 9.4 68 3.1 ESE 22 32 12 17 1015.8 1015.7 0.0
01/06:30pm 15.6 11.8 9.7 68 3.1 SE 20 33 11 18 1015.5 1015.4 0.0
01/06:00pm 16.3 12.6 10.2 67 3.2 SE 20 35 11 19 1015.3 1015.2 0.0
01/05:30pm 16.3 12.5 9.9 66 3.4 SE 20 30 11 16 1014.9 1014.8 0.0
01/05:00pm 17.2 13.7 10.3 64 3.7 SE 19 33 10 18 1014.8 1014.7 0.0
01/04:30pm 17.7 14.2 10.1 61 4.0 SE 19 32 10 17 1014.7 1014.6 0.0
01/04:00pm 17.7 13.8 9.3 58 4.4 SE 20 26 11 14 1014.5 1014.4 0.0
01/03:30pm 17.8 14.1 9.4 58 4.4 SE 19 32 10 17 1014.5 1014.4 0.0
01/03:00pm 17.7 13.8 9.3 58 4.4 SE 20 30 11 16 1014.3 1014.2 0.0
01/02:30pm 18.3 15.8 9.6 57 4.6 E 13 28 7 15 1014.4 1014.3 0.0
01/02:00pm 17.8 14.5 9.7 59 4.3 SE 17 26 9 14 1014.4 1014.3 0.0
01/01:30pm 18.2 15.1 9.0 55 4.8 SE 15 28 8 15 1014.6 1014.5 0.0
01/01:00pm 17.2 13.9 9.4 60 4.1 SE 17 24 9 13 1014.7 1014.6 0.0
01/12:30pm 16.9 14.2 8.8 59 4.2 SE 13 20 7 11 1014.7 1014.6 0.0
01/12:00pm 16.5 14.4 9.7 64 3.6 SE 11 19 6 10 1015.0 1014.9 0.0
01/11:30am 16.2 13.7 9.6 65 3.5 SSE 13 22 7 12 1014.9 1014.8 0.0
01/11:00am 16.4 14.0 10.0 66 3.4 SE 13 22 7 12 1014.9 1014.8 0.0
01/10:30am 15.9 13.2 10.2 69 3.0 SE 15 20 8 11 1014.9 1014.8 0.0
01/10:00am 14.9 12.9 10.1 73 2.5 ESE 11 17 6 9 1014.9 1014.8 0.0
01/09:30am 13.8 10.9 9.6 76 2.2 ESE 15 20 8 11 1014.7 1014.6 0.0
01/09:00am 13.8 11.4 10.0 78 2.0 SE 13 20 7 11 1014.5 1014.4 0.0
01/08:30am 13.6 13.4 10.4 81 1.7 N 2 9 1 5 1013.9 1013.7 0.0
01/08:00am 13.3 12.8 10.8 85 1.3 NW 4 7 2 4 1013.7 1013.5 0.0
01/07:30am 12.9 13.3 11.1 89 1.0 CALM 0 6 0 3 1013.4 1013.2 0.0
01/07:00am 12.6 12.8 10.7 88 1.0 CALM 0 0 0 0 1013.2 1013.0 0.0
01/06:30am 12.6 11.9 10.1 85 1.3 SSE 4 7 2 4 1012.9 1012.7 0.0
01/06:00am 12.6 11.5 10.1 85 1.3 SSE 6 11 3 6 1012.7 1012.5 0.0
01/05:30am 12.7 13.1 11.4 92 0.7 CALM 0 0 0 0 1012.4 1012.2 0.0
01/05:00am 12.7 13.3 11.9 95 0.4 CALM 0 0 0 0 1012.3 1012.1 0.0
01/04:30am 12.7 13.3 11.8 94 0.5 CALM 0 0 0 0 1012.3 1012.1 0.0
01/04:00am 12.7 13.2 11.6 93 0.6 CALM 0 0 0 0 1012.3 1012.1 0.0
01/03:30am 12.9 13.0 11.5 91 0.7 E 2 6 1 3 1012.4 1012.2 0.0
01/03:00am 13.0 12.3 11.4 90 0.9 E 6 7 3 4 1012.4 1012.2 0.0
01/02:30am 13.3 13.0 11.4 88 1.0 ENE 4 7 2 4 1012.4 1012.2 0.0
01/02:00am 13.4 13.8 11.3 87 1.1 CALM 0 0 0 0 1012.5 1012.3 0.0
01/01:30am 13.5 12.7 10.9 84 1.4 E 6 9 3 5 1012.5 1012.3 0.0
01/01:00am 13.6 13.5 10.9 84 1.4 SSE 2 7 1 4 1012.6 1012.4 0.0
01/12:30am 13.7 12.9 11.0 84 1.4 S 6 7 3 4 1012.7 1012.5 0.0
01/12:00am 13.8 12.8 11.0 83 1.5 S 7 13 4 7 1012.7 1012.5 0.0
 
Date/Time
EDT
Temp
°C
App
Temp
°C
Dew
Point
Rel
Hum
%
Delta-T
°C
Wind Press
QNH
hPa
Press
MSL
hPa
Rain
since 9 am
mm
Dir
 
Spd
km/h
Gust
km/h
Spd
kts
Gust
kts
31/11:30pm 13.9 12.2 11.1 83 1.5 SSE 11 17 6 9 1012.9 1012.7 0.0
31/11:00pm 13.6 12.6 11.1 85 1.3 SSW 7 7 4 4 1013.0 1012.8 0.0
31/10:30pm 14.0 13.0 11.0 82 1.6 SSE 7 13 4 7 1012.9 1012.7 0.0
31/10:00pm 14.4 12.3 11.2 81 1.7 SSE 13 20 7 11 1012.8 1012.6 0.0
31/09:30pm 14.7 12.3 11.3 80 1.8 SE 15 22 8 12 1012.5 1012.3 0.0
31/09:00pm 15.1 11.9 11.3 78 2.0 SE 19 26 10 14 1012.2 1012.0 0.0
31/08:30pm 15.6 12.5 11.6 77 2.2 ESE 19 28 10 15 1011.8 1011.6 0.0
31/08:00pm 16.1 13.9 12.1 77 2.2 SE 15 20 8 11 1011.5 1011.3 0.0
31/07:30pm 16.5 14.4 12.3 76 2.3 SE 15 24 8 13 1011.4 1011.2 0.0
31/07:00pm 16.5 14.8 12.3 76 2.3 SE 13 20 7 11 1011.1 1010.9 0.0
31/06:30pm 17.0 14.9 12.3 74 2.6 SE 15 22 8 12 1010.9 1010.7 0.0
31/06:00pm 17.0 15.3 12.5 75 2.5 SE 13 22 7 12 1010.8 1010.6 0.0
31/05:30pm 17.0 14.6 12.5 75 2.5 SE 17 26 9 14 1010.9 1010.7 0.0
31/05:00pm 17.2 14.4 12.5 74 2.6 SE 19 28 10 15 1010.8 1010.6 0.0
31/04:30pm 17.1 14.7 12.6 75 2.5 ESE 17 28 9 15 1010.6 1010.4 0.0
31/04:00pm 16.7 13.8 12.3 75 2.4 ESE 19 26 10 14 1010.7 1010.5 0.0
31/03:30pm 17.5 15.5 12.6 73 2.7 ESE 15 22 8 12 1010.7 1010.5 0.0
31/03:00pm 17.5 15.4 12.4 72 2.8 SE 15 22 8 12 1010.6 1010.4 0.0
31/02:30pm 17.8 15.7 12.3 70 3.1 SE 15 20 8 11 1010.7 1010.5 0.0
31/02:00pm 17.9 15.3 12.1 69 3.2 SE 17 24 9 13 1010.8 1010.6 0.0
31/01:30pm 18.0 15.5 12.2 69 3.2 SE 17 24 9 13 1010.9 1010.7 0.0
31/01:00pm 17.7 14.6 11.5 67 3.4 SE 19 28 10 15 1011.1 1010.9 0.0
31/12:30pm 18.3 15.2 12.1 67 3.4 SE 20 32 11 17 1011.1 1010.9 0.0
31/12:00pm 18.3 14.3 11.8 66 3.6 SE 24 33 13 18 1011.2 1011.0 0.0
31/11:30am 17.4 14.2 11.9 70 3.0 SE 20 32 11 17 1011.3 1011.1 0.0
31/11:00am 17.3 14.3 12.0 71 2.9 SE 19 26 10 14 1011.7 1011.5 0.0
31/10:30am 17.0 13.9 11.5 70 3.0 SE 19 30 10 16 1011.8 1011.6 0.0
31/10:00am 17.2 14.5 11.7 70 3.0 SE 17 24 9 13 1011.8 1011.6 0.0
31/09:30am 16.5 15.6 11.2 71 2.9 ESE 7 11 4 6 1012.0 1011.8 0.0
31/09:00am 15.3 14.5 10.9 75 2.3 ENE 6 7 3 4 1012.2 1012.0 0.0
31/08:30am 14.9 14.0 10.7 76 2.2 N 6 9 3 5 1012.1 1011.9 0.0
31/08:00am 13.9 14.3 11.4 85 1.3 CALM 0 0 0 0 1012.2 1012.0 0.0
31/07:30am 13.4 12.5 10.6 83 1.5 NW 6 7 3 4 1012.0 1011.8 0.0
31/07:00am 12.7 12.9 10.6 87 1.1 CALM 0 0 0 0 1012.0 1011.8 0.0
31/06:30am 12.3 12.5 10.5 89 0.9 CALM 0 2 0 1 1012.1 1011.9 0.0
31/06:00am 12.3 12.5 10.4 88 1.0 CALM 0 4 0 2 1012.0 1011.8 0.0
31/05:30am 12.4 12.5 10.3 87 1.1 CALM 0 0 0 0 1011.9 1011.7 0.0
31/05:00am 12.4 12.1 10.1 86 1.2 N 2 7 1 4 1011.8 1011.6 0.0
31/04:30am 12.3 12.0 10.2 87 1.1 N 2 6 1 3 1012.0 1011.8 0.0
31/04:00am 12.3 12.4 10.2 87 1.1 CALM 0 6 0 3 1012.2 1012.0 0.0
31/03:30am 12.4 12.5 10.0 85 1.2 CALM 0 0 0 0 1012.5 1012.3 0.0
31/03:00am 12.5 11.3 9.7 83 1.4 W 6 7 3 4 1012.9 1012.7 0.0
31/02:30am 12.7 11.4 9.3 80 1.7 W 6 9 3 5 1013.1 1012.9 0.0
31/02:00am 12.6 11.4 9.4 81 1.6 WNW 6 7 3 4 1013.4 1013.2 0.0
31/01:30am 12.6 11.4 9.6 82 1.5 NNE 6 9 3 5 1013.5 1013.3 0.0
31/01:00am 12.4 12.1 10.0 85 1.2 NE 2 7 1 4 1013.8 1013.6 0.0
31/12:30am 12.5 12.4 9.5 82 1.5 CALM 0 6 0 3 1014.1 1013.9 0.0
31/12:00am 12.4 12.3 9.6 83 1.4 CALM 0 0 0 0 1014.3 1014.2 0.0
 
Date/Time
EDT
Temp
°C
App
Temp
°C
Dew
Point
Rel
Hum
%
Delta-T
°C
Wind Press
QNH
hPa
Press
MSL
hPa
Rain
since 9 am
mm
Dir
 
Spd
km/h
Gust
km/h
Spd
kts
Gust
kts
30/11:30pm 12.4 11.6 9.6 83 1.4 SW 4 7 2 4 1014.2 1014.0 0.0
30/11:00pm 12.9 11.7 9.5 80 1.7 SW 6 7 3 4 1014.7 1014.6 0.0
30/10:30pm 13.1 10.8 9.0 76 2.1 S 11 17 6 9 1015.1 1015.0 0.0
30/10:00pm 13.6 11.0 9.5 76 2.1 S 13 20 7 11 1015.4 1015.3 0.0
30/09:30pm 13.6 11.0 9.5 76 2.1 SSE 13 20 7 11 1015.3 1015.2 0.0
30/09:00pm 13.9 10.2 9.3 74 2.4 SSE 19 30 10 16 1015.0 1014.9 0.0
30/08:30pm 14.5 12.8 9.9 74 2.4 SE 9 17 5 9 1015.1 1015.0 0.0
30/08:00pm 15.2 12.0 9.8 70 2.8 SSE 17 26 9 14 1015.0 1014.9 0.0
30/07:30pm 15.4 12.0 9.3 67 3.2 SSE 17 24 9 13 1015.0 1014.9 0.0
30/07:00pm 15.5 12.2 9.6 68 3.1 SE 17 30 9 16 1015.2 1015.1 0.0
30/06:30pm 16.0 12.2 9.2 64 3.5 SSE 19 28 10 15 1015.3 1015.2 0.0
30/06:00pm 16.3 12.4 8.8 61 3.9 SSE 19 28 10 15 1015.4 1015.3 0.0
30/05:30pm 16.4 11.8 8.1 58 4.2 SSE 22 33 12 18 1015.6 1015.5 0.0
30/05:00pm 16.7 11.1 8.7 59 4.1 SSE 28 41 15 22 1015.7 1015.6 0.0
30/04:30pm 17.5 12.6 8.6 56 4.6 SSE 24 39 13 21 1015.8 1015.7 0.0
30/04:00pm 17.2 11.9 8.4 56 4.5 SSE 26 37 14 20 1015.8 1015.7 0.0
30/03:30pm 17.8 12.7 9.2 57 4.5 SSE 26 41 14 22 1016.0 1015.9 0.0
30/03:00pm 18.4 14.1 9.2 55 4.8 SE 22 33 12 18 1016.0 1015.9 0.0
30/02:30pm 18.6 14.5 8.8 53 5.1 S 20 33 11 18 1016.2 1016.0 0.0
30/02:00pm 18.1 14.3 9.7 58 4.4 SE 20 32 11 17 1016.6 1016.4 0.0
30/01:30pm 19.2 15.2 10.5 57 4.7 SSE 22 30 12 16 1016.7 1016.5 0.0
30/01:00pm 18.1 14.6 11.0 63 3.9 SSE 20 30 11 16 1017.1 1016.9 0.0
30/12:30pm 17.8 14.1 10.2 61 4.1 SE 20 28 11 15 1017.2 1017.0 0.0
30/12:00pm 17.4 14.1 10.8 65 3.6 SE 19 28 10 15 1017.6 1017.4 0.0
30/11:30am 16.7 14.7 11.4 71 2.9 SE 13 19 7 10 1018.0 1017.8 0.0
30/11:00am 15.1 12.8 10.5 74 2.4 ESE 13 20 7 11 1018.3 1018.1 0.0
30/10:30am 15.1 14.8 11.3 78 2.0 ESE 4 9 2 5 1018.7 1018.5 0.0
30/10:00am 13.9 13.4 10.7 81 1.7 SSE 4 9 2 5 1019.2 1019.0 0.0
30/09:30am 12.9 12.5 9.9 82 1.5 N 2 7 1 4 1019.4 1019.2 0.0
30/09:00am 12.3 11.2 9.9 85 1.2 N 6 7 3 4 1019.4 1019.2 0.0
30/08:30am 11.8 10.4 9.7 87 1.1 NNE 7 11 4 6 1019.3 1019.1 0.0
30/08:00am 11.4 10.2 9.7 89 0.9 N 6 9 3 5 1019.4 1019.2 0.0
30/07:30am 10.8 9.4 9.7 93 0.6 NNE 7 9 4 5 1019.5 1019.3 0.0
30/07:00am 10.4 9.2 9.5 94 0.5 NNW 6 7 3 4 1019.6 1019.4 0.0
30/06:30am 9.9 8.4 9.1 95 0.4 N 7 9 4 5 1019.6 1019.4 0.0
30/06:00am 9.7 9.4 8.8 94 0.4 CALM 0 0 0 0 1019.6 1019.4 0.0
30/05:30am 9.9 9.6 8.8 93 0.5 CALM 0 0 0 0 1019.6 1019.4 0.0
30/05:00am 10.0 9.0 8.9 93 0.5 N 4 6 2 3 1019.8 1019.6 0.0
30/04:30am 10.0 8.6 8.9 93 0.5 NNE 6 9 3 5 1020.1 1019.9 0.0
30/04:00am 9.6 8.0 8.7 94 0.4 NNE 7 11 4 6 1020.2 1020.0 0.0
30/03:30am 9.9 8.5 8.8 93 0.5 N 6 9 3 5 1020.6 1020.4 0.0
30/03:00am 9.9 7.9 8.7 92 0.6 NW 9 11 5 6 1021.0 1020.8 0.0
30/02:30am 9.8 8.3 8.4 91 0.7 S 6 7 3 4 1021.3 1021.1 0.0
30/02:00am 10.6 10.0 8.9 89 0.8 S 2 6 1 3 1021.8 1021.6 0.0
30/01:30am 10.7 9.1 8.8 88 0.9 SSE 7 9 4 5 1022.2 1022.0 0.0
30/01:00am 10.9 9.5 8.7 86 1.1 SE 6 9 3 5 1022.5 1022.3 0.0
30/12:30am 11.1 8.7 8.5 84 1.3 SE 11 19 6 10 1022.8 1022.6 0.0
30/12:00am 11.4 9.3 8.3 81 1.5 SE 9 15 5 8 1022.8 1022.6 0.0
 
Date/Time
EDT
Temp
°C
App
Temp
°C
Dew
Point
Rel
Hum
%
Delta-T
°C
Wind Press
QNH
hPa
Press
MSL
hPa
Rain
since 9 am
mm
Dir
 
Spd
km/h
Gust
km/h
Spd
kts
Gust
kts
29/11:30pm 11.0 9.4 8.6 85 1.2 ESE 7 13 4 7 1022.8 1022.6 0.0
29/11:00pm 11.8 8.1 7.9 77 1.9 SSE 17 32 9 17 1023.1 1022.9 0.0

Other Formats:

Comma delimited format used in spreadsheet applications
http://www.bom.gov.au/fwo/IDT60801/IDT60801.94957.axf

JavaScript Object Notation format (JSON) in row-major order
http://www.bom.gov.au/fwo/IDT60801/IDT60801.94957.json